createdAt,value
2019-05-13T00:02:05.028Z,7.53
2019-05-13T00:04:33.723Z,17.20
2019-05-13T00:07:00.004Z,7.40
2019-05-13T00:09:26.094Z,11.40
2019-05-13T00:11:54.044Z,9.90
2019-05-13T00:14:20.620Z,7.80
2019-05-13T00:16:46.743Z,11.40
2019-05-13T00:19:14.274Z,10.57
2019-05-13T00:21:40.558Z,8.13
2019-05-13T00:24:06.654Z,9.43
2019-05-13T00:26:34.947Z,10.77
2019-05-13T00:29:04.112Z,8.10
2019-05-13T00:31:30.416Z,13.17
2019-05-13T00:33:56.892Z,9.77
2019-05-13T00:36:24.295Z,8.33
2019-05-13T00:38:50.395Z,7.13
2019-05-13T00:41:16.444Z,8.73
2019-05-13T00:43:44.457Z,7.43
2019-05-13T00:46:11.422Z,7.97
2019-05-13T00:48:37.456Z,8.60
2019-05-13T00:51:03.906Z,11.13
2019-05-13T00:53:30.917Z,9.57
2019-05-13T00:55:57.106Z,10.33
2019-05-13T00:58:24.425Z,12.70
2019-05-13T01:00:50.501Z,9.23
2019-05-13T01:03:16.750Z,10.83
2019-05-13T01:05:44.445Z,10.77
2019-05-13T01:08:10.779Z,5.53
2019-05-13T01:10:37.402Z,16.17
2019-05-13T01:13:04.745Z,10.60
2019-05-13T01:15:34.011Z,15.63
2019-05-13T01:17:59.473Z,7.60
2019-05-13T01:20:25.542Z,12.30
2019-05-13T01:22:53.976Z,10.10
2019-05-13T01:25:19.536Z,9.80
2019-05-13T01:27:45.813Z,9.90
2019-05-13T01:30:13.356Z,10.93
2019-05-13T01:32:39.789Z,17.77
2019-05-13T01:35:06.004Z,11.83
2019-05-13T01:37:39.997Z,10.67
2019-05-13T01:39:59.947Z,9.27
2019-05-13T01:42:26.250Z,10.27
2019-05-13T01:44:53.865Z,8.97
2019-05-13T01:47:20.101Z,11.50
2019-05-13T01:49:46.091Z,13.80
2019-05-13T01:52:13.680Z,10.10
2019-05-13T01:54:39.976Z,12.03
2019-05-13T01:57:06.254Z,10.90
2019-05-13T01:59:34.598Z,14.23
2019-05-13T02:02:03.258Z,13.60
2019-05-13T02:04:29.114Z,16.23
2019-05-13T02:06:55.116Z,13.83
2019-05-13T02:09:21.187Z,10.40
2019-05-13T02:11:47.521Z,12.00
2019-05-13T02:14:13.553Z,10.93
2019-05-13T02:16:39.579Z,8.03
2019-05-13T02:19:05.729Z,12.93
2019-05-13T02:21:33.661Z,11.17
2019-05-13T02:23:59.732Z,14.37
2019-05-13T02:26:25.836Z,11.17
2019-05-13T02:28:53.989Z,12.63
2019-05-13T02:31:32.458Z,14.10
2019-05-13T02:33:47.663Z,11.00
2019-05-13T02:36:13.910Z,9.80
2019-05-13T02:38:42.695Z,19.50
2019-05-13T02:41:08.012Z,13.63
2019-05-13T02:43:34.719Z,15.60
2019-05-13T02:46:04.126Z,9.37
2019-05-13T02:48:28.773Z,13.87
2019-05-13T02:50:55.400Z,13.30
2019-05-13T02:53:23.768Z,9.73
2019-05-13T02:55:52.230Z,13.57
2019-05-13T02:58:17.440Z,12.63
2019-05-13T03:00:44.882Z,11.03
2019-05-13T03:03:12.900Z,13.37
2019-05-13T03:05:42.880Z,12.87
2019-05-13T03:08:08.451Z,13.70
2019-05-13T03:10:36.637Z,16.07
2019-05-13T03:13:03.934Z,9.90
2019-05-13T03:15:32.705Z,10.17
2019-05-13T03:18:05.086Z,13.90
2019-05-13T03:20:33.380Z,9.43
2019-05-13T03:23:03.032Z,16.40
2019-05-13T03:25:28.068Z,11.97
2019-05-13T03:27:54.491Z,13.33
2019-05-13T03:30:25.462Z,13.27
2019-05-13T03:32:55.332Z,16.00
2019-05-13T03:35:17.196Z,10.70
2019-05-13T03:37:43.457Z,10.17
2019-05-13T03:40:13.112Z,14.83
2019-05-13T03:42:42.452Z,10.57
2019-05-13T03:45:08.783Z,16.17
2019-05-13T03:47:35.116Z,11.57
2019-05-13T03:50:03.541Z,10.40
2019-05-13T03:52:33.235Z,14.50
2019-05-13T03:54:57.958Z,14.30
2019-05-13T03:57:24.089Z,12.77
2019-05-13T03:59:52.623Z,12.87
2019-05-13T04:02:22.367Z,11.73
2019-05-13T04:04:46.615Z,8.47
2019-05-13T04:07:13.077Z,13.00
2019-05-13T04:09:42.145Z,14.20
2019-05-13T04:12:07.522Z,9.70
2019-05-13T04:14:35.521Z,11.63
2019-05-13T04:17:02.962Z,14.57
2019-05-13T04:19:33.614Z,12.67
2019-05-13T04:21:58.521Z,9.30
2019-05-13T04:24:24.511Z,14.07
2019-05-13T04:26:53.473Z,11.43
2019-05-13T04:29:23.454Z,11.40
2019-05-13T04:31:49.020Z,12.00
2019-05-13T04:34:15.184Z,7.67
2019-05-13T04:36:43.002Z,13.80
2019-05-13T04:39:12.695Z,11.40
2019-05-13T04:41:37.144Z,16.43
2019-05-13T04:44:05.003Z,9.13
2019-05-13T04:46:32.784Z,11.00
2019-05-13T04:49:02.005Z,18.93
2019-05-13T04:51:27.165Z,11.20
2019-05-13T04:53:57.098Z,14.57
2019-05-13T04:56:22.496Z,12.80
2019-05-13T04:58:52.459Z,13.60
2019-05-13T05:01:32.465Z,14.33
2019-05-13T05:04:22.183Z,11.10
2019-05-13T05:06:54.747Z,13.47
2019-05-13T05:10:13.051Z,13.43
2019-05-13T05:12:51.705Z,10.60
2019-05-13T05:15:38.607Z,9.20
2019-05-13T05:18:14.281Z,13.17
2019-05-13T05:21:01.481Z,12.63
2019-05-13T05:23:53.184Z,11.70
2019-05-13T05:26:42.005Z,15.57
2019-05-13T05:29:12.029Z,8.83
2019-05-13T05:32:01.963Z,12.30
2019-05-13T05:34:51.790Z,9.30
2019-05-13T05:37:24.391Z,11.00
2019-05-13T05:39:53.677Z,8.57
2019-05-13T05:42:22.617Z,12.00
2019-05-13T05:44:51.842Z,13.37
2019-05-13T05:47:21.338Z,13.80
2019-05-13T05:49:51.620Z,11.47
2019-05-13T05:52:21.091Z,12.63
2019-05-13T05:54:51.614Z,11.93
2019-05-13T05:57:18.456Z,9.43
2019-05-13T05:59:44.711Z,11.47
2019-05-13T06:02:12.118Z,17.77
2019-05-13T06:04:38.482Z,17.30
2019-05-13T06:07:04.531Z,11.60
2019-05-13T06:09:32.261Z,16.40
2019-05-13T06:11:58.455Z,20.53
2019-05-13T06:14:24.685Z,10.40
2019-05-13T06:16:51.897Z,12.40
2019-05-13T06:19:19.506Z,11.60
2019-05-13T06:21:46.911Z,11.60
2019-05-13T06:24:12.999Z,12.07
2019-05-13T06:26:41.777Z,8.50
2019-05-13T06:29:07.698Z,18.90
2019-05-13T06:31:33.716Z,11.87
2019-05-13T06:34:01.911Z,23.07
2019-05-13T06:36:27.813Z,13.60
2019-05-13T06:38:53.973Z,10.33
2019-05-13T06:41:21.952Z,12.43
2019-05-13T06:43:48.123Z,11.97
2019-05-13T06:46:14.094Z,12.70
2019-05-13T06:48:41.445Z,13.23
2019-05-13T06:51:07.675Z,8.07
2019-05-13T06:53:33.706Z,7.43
2019-05-13T06:56:01.517Z,12.40
2019-05-13T06:58:27.765Z,13.43
2019-05-13T07:00:57.641Z,7.23
2019-05-13T07:03:22.175Z,10.70
2019-05-13T07:05:48.266Z,14.20
2019-05-13T07:08:14.309Z,11.20
2019-05-13T07:10:41.404Z,8.80
2019-05-13T07:13:07.765Z,9.87
2019-05-13T07:15:33.784Z,10.00
2019-05-13T07:18:02.132Z,13.77
2019-05-13T07:20:27.710Z,9.30
2019-05-13T07:22:53.795Z,11.97
2019-05-13T07:25:22.221Z,17.83
2019-05-13T07:27:47.731Z,12.37
2019-05-13T07:30:17.879Z,14.70
2019-05-13T07:32:44.098Z,12.73
2019-05-13T07:35:14.251Z,10.97
2019-05-13T07:37:42.229Z,10.90
2019-05-13T07:40:11.450Z,11.27
2019-05-13T07:42:36.658Z,10.07
2019-05-13T07:45:04.782Z,6.57
2019-05-13T07:47:41.485Z,20.53
2019-05-13T07:50:07.966Z,11.47
2019-05-13T07:52:34.080Z,11.20
2019-05-13T07:55:01.646Z,9.30
2019-05-13T07:57:27.894Z,9.10
2019-05-13T07:59:53.915Z,9.97
2019-05-13T08:02:21.772Z,9.53
2019-05-13T08:04:49.508Z,11.53
2019-05-13T08:07:15.778Z,13.00
2019-05-13T08:09:42.048Z,14.00
2019-05-13T08:12:10.944Z,10.90
2019-05-13T08:14:36.200Z,7.63
2019-05-13T08:17:02.873Z,10.17
2019-05-13T08:19:29.277Z,9.53
2019-05-13T08:21:55.725Z,9.97
2019-05-13T08:24:22.712Z,7.83
2019-05-13T08:26:50.659Z,11.57
2019-05-13T08:29:16.822Z,16.10
2019-05-13T08:31:42.859Z,9.07
2019-05-13T08:34:11.558Z,9.60
2019-05-13T08:36:39.409Z,11.00
2019-05-13T08:39:07.759Z,6.60
2019-05-13T08:41:33.872Z,7.47
2019-05-13T08:44:01.746Z,8.30
2019-05-13T08:46:28.027Z,5.50
2019-05-13T08:48:54.314Z,13.63
2019-05-13T08:51:22.053Z,13.17
2019-05-13T08:53:48.216Z,7.60
2019-05-13T08:56:14.288Z,8.73
2019-05-13T08:58:41.254Z,7.00
2019-05-13T09:01:07.466Z,7.47
2019-05-13T09:03:33.514Z,7.00
2019-05-13T09:06:02.516Z,9.33
2019-05-13T09:08:27.746Z,6.83
2019-05-13T09:10:56.830Z,9.97
2019-05-13T09:13:22.430Z,10.23
2019-05-13T09:15:48.684Z,10.83
2019-05-13T09:18:14.669Z,10.23
2019-05-13T09:20:41.589Z,5.93
2019-05-13T09:23:07.791Z,7.10
2019-05-13T09:25:33.836Z,7.57
2019-05-13T09:28:02.656Z,7.27
2019-05-13T09:30:27.710Z,8.37
2019-05-13T09:32:53.834Z,6.00
2019-05-13T09:35:22.045Z,6.83
2019-05-13T09:37:47.890Z,6.30
2019-05-13T09:40:13.993Z,7.17
2019-05-13T09:42:49.132Z,7.97
2019-05-13T09:45:08.187Z,9.40
2019-05-13T09:47:34.177Z,7.17
2019-05-13T09:50:00.148Z,8.43
2019-05-13T09:52:26.192Z,5.90
2019-05-13T09:54:52.544Z,8.27
2019-05-13T09:57:21.887Z,9.00
2019-05-13T09:59:46.774Z,10.10
2019-05-13T10:02:12.849Z,6.93
2019-05-13T10:04:43.161Z,10.63
2019-05-13T10:07:07.136Z,8.90
2019-05-13T10:09:33.400Z,6.00
2019-05-13T10:12:02.693Z,5.83
2019-05-13T10:14:27.430Z,12.80
2019-05-13T10:16:53.435Z,6.73
2019-05-13T10:19:21.526Z,7.43
2019-05-13T10:21:47.379Z,9.17
2019-05-13T10:24:13.413Z,7.80
2019-05-13T10:26:42.613Z,10.63
2019-05-13T10:29:07.892Z,5.90
2019-05-13T10:31:34.212Z,7.13
2019-05-13T10:34:02.403Z,7.53
2019-05-13T10:36:28.327Z,7.50
2019-05-13T10:38:54.518Z,10.73
2019-05-13T10:41:22.284Z,8.07
2019-05-13T10:43:48.467Z,4.90
2019-05-13T10:46:14.555Z,8.23
2019-05-13T10:48:41.688Z,14.17
2019-05-13T10:51:07.874Z,9.27
2019-05-13T10:53:34.019Z,9.00
2019-05-13T10:56:02.491Z,4.37
2019-05-13T10:58:28.133Z,5.00
2019-05-13T11:00:55.334Z,4.50
2019-05-13T11:03:22.981Z,6.03
2019-05-13T11:05:52.265Z,3.43
2019-05-13T11:08:17.484Z,7.70
2019-05-13T11:10:43.558Z,4.00
2019-05-13T11:13:10.789Z,5.23
2019-05-13T11:15:40.677Z,6.00
2019-05-13T11:18:05.925Z,5.13
2019-05-13T11:20:32.497Z,4.30
2019-05-13T11:22:58.561Z,5.97
2019-05-13T11:25:24.599Z,5.80
2019-05-13T11:27:52.454Z,3.43
2019-05-13T11:30:21.567Z,6.17
2019-05-13T11:32:47.281Z,9.70
2019-05-13T11:35:13.397Z,5.03
2019-05-13T11:37:40.011Z,3.57
2019-05-13T11:40:07.085Z,6.30
2019-05-13T11:42:33.473Z,5.20
2019-05-13T11:44:59.565Z,5.23
2019-05-13T11:47:25.666Z,5.40
2019-05-13T11:49:52.392Z,5.27
2019-05-13T11:52:18.566Z,6.27
2019-05-13T11:54:44.594Z,6.77
2019-05-13T11:57:12.521Z,9.17
2019-05-13T11:59:38.506Z,7.10
2019-05-13T12:02:05.439Z,8.43
2019-05-13T12:04:34.339Z,6.83
2019-05-13T12:06:59.353Z,7.90
2019-05-13T12:09:25.484Z,5.17
2019-05-13T12:11:51.581Z,6.60
2019-05-13T12:14:42.384Z,4.80
2019-05-13T12:16:45.713Z,6.23
2019-05-13T12:19:12.070Z,5.10
2019-05-13T12:21:43.334Z,2.90
2019-05-13T12:24:10.430Z,5.80
2019-05-13T12:26:34.132Z,5.57
2019-05-13T12:29:02.747Z,4.03
2019-05-13T12:31:27.989Z,5.50
2019-05-13T12:33:54.089Z,5.97
2019-05-13T12:36:23.651Z,4.53
2019-05-13T12:38:48.346Z,6.03
2019-05-13T12:41:14.477Z,4.90
2019-05-13T12:43:42.579Z,2.87
2019-05-13T12:46:08.488Z,3.77
2019-05-13T12:48:34.627Z,4.57
2019-05-13T12:51:02.972Z,5.70
2019-05-13T12:53:28.560Z,5.53
2019-05-13T12:55:57.379Z,7.70
2019-05-13T12:58:23.601Z,6.37
2019-05-13T13:00:52.922Z,7.03
2019-05-13T13:03:18.021Z,6.13
2019-05-13T13:05:44.089Z,5.53
2019-05-13T13:08:23.974Z,2.93
2019-05-13T13:10:38.299Z,3.90
2019-05-13T13:13:04.417Z,8.53
2019-05-13T13:15:38.222Z,7.10
2019-05-13T13:17:58.793Z,9.20
2019-05-13T13:20:24.757Z,10.20
2019-05-13T13:22:50.768Z,19.73
2019-05-13T13:25:17.297Z,14.60
2019-05-13T13:28:09.933Z,15.37
2019-05-13T13:30:12.071Z,12.90
2019-05-13T13:32:38.150Z,10.40
2019-05-13T13:35:04.540Z,8.67
2019-05-13T13:37:34.779Z,5.67
2019-05-13T13:39:58.858Z,7.80
2019-05-13T13:42:24.853Z,3.33
2019-05-13T13:44:53.721Z,4.43
2019-05-13T13:47:18.871Z,5.30
2019-05-13T13:49:45.044Z,5.10
2019-05-13T13:52:15.961Z,7.80
2019-05-13T13:54:43.803Z,6.47
2019-05-13T13:57:07.174Z,4.40
2019-05-13T13:59:35.976Z,4.07
2019-05-13T14:02:05.431Z,5.37
2019-05-13T14:04:29.926Z,4.80
2019-05-13T14:09:23.868Z,5.70
2019-05-13T14:11:51.565Z,3.90
2019-05-13T14:14:17.702Z,5.30
2019-05-13T14:16:46.641Z,3.87
2019-05-13T14:19:11.732Z,5.20
2019-05-13T14:21:37.723Z,5.60
2019-05-13T14:24:03.957Z,7.73
2019-05-13T14:26:32.426Z,3.00
2019-05-13T14:28:57.983Z,6.33
2019-05-13T14:31:24.014Z,3.17
2019-05-13T14:33:52.042Z,4.67
2019-05-13T14:36:17.996Z,5.30
2019-05-13T14:38:44.194Z,8.57
2019-05-13T14:41:12.320Z,4.43
2019-05-13T14:43:38.742Z,5.33
2019-05-13T14:46:04.856Z,3.93
2019-05-13T14:48:32.915Z,3.23
2019-05-13T14:50:59.814Z,3.13
2019-05-13T14:53:28.171Z,5.23
2019-05-13T14:55:54.301Z,3.70
2019-05-13T14:58:21.902Z,4.70
2019-05-13T15:01:07.045Z,3.77
2019-05-13T15:03:16.257Z,4.30
2019-05-13T15:05:43.052Z,5.63
2019-05-13T15:08:09.218Z,5.63
2019-05-13T15:10:35.537Z,4.57
2019-05-13T15:13:03.043Z,4.67
2019-05-13T15:15:31.714Z,6.20
2019-05-13T15:17:57.328Z,4.00
2019-05-13T15:20:23.540Z,2.80
2019-05-13T15:22:51.789Z,5.30
2019-05-13T15:25:18.235Z,4.73
2019-05-13T15:27:45.139Z,5.77
2019-05-13T15:30:18.352Z,3.70
2019-05-13T15:32:41.935Z,4.13
2019-05-13T15:35:10.080Z,4.47
2019-05-13T15:37:36.128Z,5.50
2019-05-13T15:40:04.246Z,4.53
2019-05-13T15:42:31.954Z,5.20
2019-05-13T15:44:58.424Z,7.40
2019-05-13T15:47:26.878Z,2.90
2019-05-13T15:49:52.776Z,5.93
2019-05-13T15:52:22.614Z,4.40
2019-05-13T15:54:49.175Z,3.37
2019-05-13T15:57:15.276Z,3.50
2019-05-13T15:59:41.558Z,7.73
2019-05-13T16:02:07.773Z,6.37
2019-05-13T16:04:48.787Z,7.47
2019-05-13T16:07:02.050Z,5.73
2019-05-13T16:09:31.252Z,4.83
2019-05-13T16:11:56.869Z,4.03
2019-05-13T16:14:22.989Z,4.40
2019-05-13T16:16:49.116Z,3.90
2019-05-13T16:19:15.145Z,3.93
2019-05-13T16:21:41.787Z,4.10
2019-05-13T16:24:07.913Z,4.70
2019-05-13T16:26:33.927Z,8.30
2019-05-13T16:29:02.105Z,4.00
2019-05-13T16:31:27.895Z,4.93
2019-05-13T16:33:54.081Z,3.37
2019-05-13T16:36:22.163Z,4.07
2019-05-13T16:38:48.379Z,4.23
2019-05-13T16:41:14.964Z,3.70
2019-05-13T16:43:42.677Z,3.93
2019-05-13T16:46:08.955Z,3.50
2019-05-13T16:48:35.053Z,6.60
2019-05-13T16:51:01.411Z,2.70
2019-05-13T16:53:27.451Z,5.10
2019-05-13T16:55:54.263Z,3.10
2019-05-13T16:58:24.702Z,4.33
2019-05-13T17:00:51.596Z,4.43
2019-05-13T17:03:16.969Z,5.60
2019-05-13T17:05:43.323Z,5.43
2019-05-13T17:08:09.426Z,3.93
2019-05-13T17:10:35.659Z,5.97
2019-05-13T17:13:02.979Z,6.07
2019-05-13T17:15:31.201Z,7.30
2019-05-13T17:18:09.241Z,4.40
2019-05-13T17:20:25.544Z,4.20
2019-05-13T17:22:51.548Z,4.53
2019-05-13T17:25:17.579Z,3.20
2019-05-13T17:27:43.614Z,6.07
2019-05-13T17:30:11.448Z,6.43
2019-05-13T17:32:37.921Z,5.80
2019-05-13T17:35:05.069Z,4.10
2019-05-13T17:37:31.675Z,3.53
2019-05-13T17:39:58.490Z,6.17
2019-05-13T17:42:24.639Z,3.23
2019-05-13T17:44:51.639Z,4.43
2019-05-13T17:47:17.854Z,5.73
2019-05-13T17:49:43.910Z,3.30
2019-05-13T17:52:11.521Z,4.73
2019-05-13T17:54:37.702Z,5.43
2019-05-13T17:57:03.731Z,3.73
2019-05-13T17:59:31.448Z,3.30
2019-05-13T18:01:58.101Z,5.37
2019-05-13T18:04:24.178Z,11.53
2019-05-13T18:06:52.287Z,7.30
2019-05-13T18:09:18.081Z,9.80
2019-05-13T18:11:44.333Z,18.00
2019-05-13T18:14:11.429Z,28.40
2019-05-13T18:16:37.755Z,32.97
2019-05-13T18:19:03.772Z,73.63
2019-05-13T18:21:31.634Z,24.60
2019-05-13T18:23:57.665Z,25.80
2019-05-13T18:26:23.698Z,58.73
2019-05-13T18:28:51.548Z,26.40
2019-05-13T18:31:17.656Z,17.27
2019-05-13T18:33:43.634Z,5.70
2019-05-13T18:36:11.848Z,8.97
2019-05-13T18:38:37.650Z,3.70
2019-05-13T18:41:03.794Z,3.53
2019-05-13T18:43:31.867Z,2.60
2019-05-13T18:45:57.930Z,3.97
2019-05-13T18:48:24.410Z,3.33
2019-05-13T18:50:52.399Z,3.00
2019-05-13T18:53:18.371Z,6.00
2019-05-13T18:55:44.329Z,3.57
2019-05-13T18:58:11.628Z,2.93
2019-05-13T19:00:37.783Z,6.30
2019-05-13T19:03:04.049Z,3.30
2019-05-13T19:05:31.717Z,3.00
2019-05-13T19:07:57.826Z,5.80
2019-05-13T19:10:23.859Z,2.37
2019-05-13T19:12:49.889Z,3.40
2019-05-13T19:15:16.189Z,2.53
2019-05-13T19:17:42.230Z,2.73
2019-05-13T19:20:08.303Z,2.13
2019-05-13T19:22:34.282Z,3.80
2019-05-13T19:25:01.094Z,4.80
2019-05-13T19:27:27.237Z,5.80
2019-05-13T19:29:53.225Z,3.00
2019-05-13T19:32:21.693Z,3.87
2019-05-13T19:34:47.396Z,4.73
2019-05-13T19:37:13.445Z,3.43
2019-05-13T19:39:39.553Z,5.30
2019-05-13T19:42:05.628Z,12.57
2019-05-13T19:44:31.715Z,22.20
2019-05-13T19:46:57.753Z,41.77
2019-05-13T19:49:32.145Z,76.90
2019-05-13T19:51:52.123Z,76.03
2019-05-13T19:54:18.344Z,64.77
2019-05-13T19:56:44.443Z,53.17
2019-05-13T19:59:12.434Z,56.47
2019-05-13T20:01:38.457Z,102.93
2019-05-13T20:04:04.771Z,18.70
2019-05-13T20:06:32.026Z,4.63
2019-05-13T20:08:58.167Z,4.00
2019-05-13T20:11:24.286Z,3.70
2019-05-13T20:13:52.104Z,4.40
2019-05-13T20:16:18.281Z,3.40
2019-05-13T20:18:44.483Z,10.27
2019-05-13T20:21:13.381Z,8.67
2019-05-13T20:23:38.697Z,3.70
2019-05-13T20:26:04.709Z,6.23
2019-05-13T20:28:31.703Z,8.10
2019-05-13T20:30:58.056Z,3.57
2019-05-13T20:33:24.231Z,3.93
2019-05-13T20:35:50.376Z,3.83
2019-05-13T20:38:16.364Z,4.30
2019-05-13T20:40:42.397Z,4.13
2019-05-13T20:43:08.611Z,4.70
2019-05-13T20:45:34.841Z,4.20
2019-05-13T20:48:01.460Z,5.40
2019-05-13T20:50:28.289Z,5.47
2019-05-13T20:52:54.516Z,8.87
2019-05-13T20:55:21.994Z,8.73
2019-05-13T20:57:48.357Z,7.50
2019-05-13T21:00:14.718Z,7.40
2019-05-13T21:02:41.808Z,5.30
2019-05-13T21:05:08.333Z,42.53
2019-05-13T21:07:34.366Z,64.47
2019-05-13T21:10:01.415Z,46.70
2019-05-13T21:12:27.709Z,97.90
2019-05-13T21:14:53.910Z,64.70
2019-05-13T21:17:21.420Z,96.97
2019-05-13T21:19:47.653Z,30.10
2019-05-13T21:22:13.722Z,28.70
2019-05-13T21:24:41.254Z,53.30
2019-05-13T21:27:07.703Z,37.40
2019-05-13T21:29:33.674Z,31.60
2019-05-13T21:32:01.116Z,29.47
2019-05-13T21:34:27.334Z,22.40
2019-05-13T21:36:53.451Z,7.93
2019-05-13T21:39:21.450Z,4.83
2019-05-13T21:41:47.901Z,4.60
2019-05-13T21:44:13.905Z,4.80
2019-05-13T21:46:41.075Z,4.37
2019-05-13T21:49:07.485Z,5.30
2019-05-13T21:51:33.602Z,4.83
2019-05-13T21:54:01.230Z,7.60
2019-05-13T21:56:27.400Z,3.67
2019-05-13T21:58:53.613Z,5.73
2019-05-13T22:01:23.134Z,5.60
2019-05-13T22:03:51.395Z,4.67
2019-05-13T22:06:17.618Z,4.00
2019-05-13T22:08:43.826Z,5.53
2019-05-13T22:11:12.072Z,4.47
2019-05-13T22:13:38.393Z,3.83
2019-05-13T22:16:04.377Z,3.43
2019-05-13T22:18:31.338Z,4.20
2019-05-13T22:20:57.693Z,26.07
2019-05-13T22:23:23.721Z,7.47
2019-05-13T22:25:51.460Z,4.50
2019-05-13T22:28:17.800Z,4.17
2019-05-13T22:30:43.849Z,4.70
2019-05-13T22:33:12.163Z,4.50
2019-05-13T22:35:38.445Z,4.67
2019-05-13T22:38:04.563Z,7.63
2019-05-13T22:40:32.271Z,5.03
2019-05-13T22:42:58.425Z,7.10
2019-05-13T22:45:24.704Z,4.00
2019-05-13T22:47:52.081Z,4.60
2019-05-13T22:50:18.570Z,5.37
2019-05-13T22:52:44.560Z,6.80
2019-05-13T22:55:11.518Z,3.13
2019-05-13T22:57:37.829Z,2.57
2019-05-13T23:00:05.140Z,2.80
2019-05-13T23:02:33.375Z,5.37
2019-05-13T23:04:59.174Z,3.73
2019-05-13T23:07:25.368Z,3.03
2019-05-13T23:09:51.988Z,3.60
2019-05-13T23:12:18.164Z,6.50
2019-05-13T23:14:44.286Z,4.00
2019-05-13T23:17:12.489Z,4.07
2019-05-13T23:19:38.300Z,3.33
2019-05-13T23:22:04.425Z,3.50
2019-05-13T23:24:31.189Z,3.50
2019-05-13T23:26:57.517Z,2.47
2019-05-13T23:29:24.532Z,2.83
2019-05-13T23:31:52.011Z,3.87
2019-05-13T23:34:18.256Z,4.73
2019-05-13T23:36:44.375Z,6.50
2019-05-13T23:39:12.891Z,4.77
2019-05-13T23:41:41.426Z,3.77
2019-05-13T23:44:20.899Z,4.27
2019-05-13T23:46:35.061Z,4.63
2019-05-13T23:49:01.311Z,5.90
2019-05-13T23:51:27.531Z,7.77
2019-05-13T23:53:53.577Z,5.50
2019-05-13T23:56:21.656Z,6.20
2019-05-13T23:58:47.519Z,3.63
